LGKR Airport Information

Runway Information
Runway 17 Length 7792 ft width 148 ft
Elevation 5 ft Threshold 1348 ft Heading 169
Runway 35 Length 7792 ft Width 148 ft
Elevation 5 ft Threshold 213 ft Heading 349
Airport Frequencies
Type A/G Name KERKIRA RD Frequency 563.7 MHZ
Type APP Name KERKIRA AP Frequency 118.075 MHZ
Type ATIS Name ATIS Frequency 126.35 MHZ
Type TWR Name KERKIRA TW Frequency 120.85 MHZ
Airport Navaids
Type VOR-DME Name Garitsa Frequency 108800 KHZ
Type NDB Name Kerkira Frequency 403 KHZ
Type VOR-DME Name Kerkira Frequency 114700 KHZ
Airport Weather Information & NOTAM
ADDS - METARS form results

(0725 UTC 17 February 2020)
Data provider http://aviationweather.gov/metar/data/
 
METAR text: LGKR 170720Z 00000KT CAVOK 07/06 Q1027 NOSIG
Conditions at: LGKR (IOANNIS KAPODIST, GR) observed 0720 UTC 17 February 2020
Temperature: 7.0°C (45°F)
Dewpoint: 6.0°C (43°F) [RH = 93%]
Pressure (altimeter): 30.32 inches Hg (1027.0 mb)
Winds: calm
Visibility: 6 or more miles (10+ km)
Ceiling: ceiling and visibility are OK
Clouds: unknown
Weather: no significant weather observed at this time

METAR text: LGKR 170650Z 00000KT CAVOK 06/05 Q1027 NOSIG
Conditions at: LGKR (IOANNIS KAPODIST, GR) observed 0650 UTC 17 February 2020
Temperature: 6.0°C (43°F)
Dewpoint: 5.0°C (41°F) [RH = 93%]
Pressure (altimeter): 30.32 inches Hg (1027.0 mb)
Winds: calm
Visibility: 6 or more miles (10+ km)
Ceiling: ceiling and visibility are OK
Clouds: unknown
Weather: no significant weather observed at this time

Forecast for: LGKR (IOANNIS KAPODIST, GR)
Text: TAF LGKR 170500Z 1706/1806 VRB05KT 9999 FEW025
Forecast period: 0600 to 1000 UTC 17 February 2020
Forecast type: FROM: standard forecast or significant change
Winds: variable direction winds at 6 MPH (5 knots; 2.6 m/s)
Visibility: 6 or more miles 10+ km)
Ceiling: at least 12,000 feet AGL
Clouds: few clouds at 2500 feet AGL
Weather: no significant weather forecast for this period
Text: BECMG 1710/1712 28012KT
Forecast period: 1000 UTC 17 February 2020 to 0600 UTC 18 February 2020
Forecast type: BECOMING: Conditions expected to become as follows by 1200 UTC 17 February 2020
Winds: from the W (280 degrees) at 14 MPH (12 knots; 6.2 m/s)
Visibility: 6 or more miles 10+ km)
Ceiling: at least 12,000 feet AGL
Clouds: few clouds at 2500 feet AGL
Weather: no significant weather forecast for this period